Portada
METAR-TAF:

METAR-TAF

Aeroports :

Damasc, Síria

latitud: 33-25N, longitud: 036-31E, altitud: 608 m

Observació

L'informe es va fer fa 47 minuts, a les 04:00 UTC
Vent 4 kt del Sud/Sud-Oest
Temperatura 5°C
Humitat 87%
Pressió 1021 hPa
Visibilitat: 0300 m
boira

METAR: OSDI 290400Z 21004KT 0300 FG 05/03 Q1021

Hora: 06:47 (04:47 UTC)

Pronòstic

Pronòstic vàlid del 29 a les 00 UTC al 30 a les 06 UTC
Vent 3 kt amb direcció variable
Visibilitat 10 km o més
Escasses núvols a una alçada de 3000 ft
Probabilitat 30% :
Temporalment
l' 29 a les 00 UTC al 29 a les 07 UTC
Vent 3 kt amb direcció variable
Visibilitat: 3000 m
boirina

TAF: OSDI 2900/3006 VRB03KT 9999 FEW030 PROB30 TEMPO 2900/2907 VRB03KT 3000 BR

Observacions i pronòstics meteorològics de més de 4000 aeroports (METAR i TAF).

Les estacions disponibles són els punts grocs i vermells al mapa.

Posi el ratolí al punt desitjat per veure el nom de l'estació.

Feu clic per veure les observacions i els pronòstics meteorològics.

Per canviar el mapa: feu clic els botons verds amb una creu de color negre per apropar; al botó verd amb un guió per allunyar la imatge; o en les fletxes verdes per a mapes adjacents.


METAR-TAF: